Weldon Spring Heights, Missouri
Current Conditions -  °F | °C
As of 8:54 PM on Tuesday 25 Nov 2014 (Local Time) from KSUS Reporting Station
Clear Clear  
Wind Chill: 26°   Ceiling: Unl
Heat Index: 26°   Visibility: 10mi
Dew Point: 22°   Wind: 0mph
Humidity: 84%   Direction: NA
Pressure: 30.17"   Gusts: NA
Location:  38.7167°N, 90.6411°W
Report Text: KSUS 260254Z 00000KT 10SM CLR M03/M06 A3017 RMK AO2 SLP226 T10331056 50003
Loading
Personal Weather Stations






























Interactive Weather Map New forecast layout! Learn more

10-Day Weather Forecast

Advertisements
Track Severe Weather on mobile